Time;durP1;ratioP1;P1;durP2;ratioP2;P2;SDS_P1;SDS_P2;PMS_P1;PMS_P2;Temp;Humidity;BMP_temperature;BMP_pressure;BME280_temperature;BME280_humidity;BME280_pressure;Samples;Min_cycle;Max_cycle;Signal;HPM_P1;HPM_P2
2024/01/08 00:02:16;;;;;;;55.85;27.13;;;;;;;8.66;100.00;96055.03;5118465;27;20478;-85
2024/01/08 00:04:41;;;;;;;61.83;30.15;;;;;;;8.71;100.00;96059.97;5118292;27;20031;-84
2024/01/08 00:07:07;;;;;;;68.13;31.83;;;;;;;8.70;100.00;96055.63;5118106;27;20530;-85
2024/01/08 00:09:33;;;;;;;72.68;31.88;;;;;;;8.68;100.00;96057.53;5117979;27;20041;-85
2024/01/08 00:11:58;;;;;;;69.13;33.97;;;;;;;8.58;100.00;96051.25;5117793;27;20027;-85
2024/01/08 00:14:24;;;;;;;89.00;41.03;;;;;;;8.46;100.00;96069.03;5117788;27;20490;-86
2024/01/08 00:16:50;;;;;;;89.78;41.13;;;;;;;8.45;100.00;96070.03;5117682;27;20465;-86
2024/01/08 00:19:16;;;;;;;81.85;39.67;;;;;;;8.41;100.00;96063.22;5118029;27;20036;-85
2024/01/08 00:21:41;;;;;;;78.45;37.83;;;;;;;8.42;100.00;96069.41;5134999;27;20482;-86
2024/01/08 00:24:07;;;;;;;70.90;32.30;;;;;;;8.36;100.00;96075.19;5134888;27;20162;-85
2024/01/08 00:26:33;;;;;;;61.70;27.20;;;;;;;8.25;100.00;96068.00;5117534;27;20083;-85
2024/01/08 00:28:59;;;;;;;54.53;24.73;;;;;;;8.31;100.00;96072.88;5117492;27;20027;-86
2024/01/08 00:31:25;;;;;;;55.88;24.80;;;;;;;8.30;100.00;96081.00;5117809;27;20030;-86
2024/01/08 00:33:50;;;;;;;59.83;26.77;;;;;;;8.27;100.00;96078.53;5134336;27;20448;-85
2024/01/08 00:36:16;;;;;;;62.10;28.75;;;;;;;8.29;100.00;96076.63;5134376;27;20018;-85
2024/01/08 00:38:41;;;;;;;78.43;32.58;;;;;;;8.28;100.00;96085.56;5117199;27;20485;-86
2024/01/08 00:41:07;;;;;;;80.03;34.55;;;;;;;8.23;100.00;96085.91;5117340;27;20031;-85
2024/01/08 00:43:32;;;;;;;86.63;36.35;;;;;;;8.24;100.00;96090.28;5117199;27;20063;-84
2024/01/08 00:45:58;;;;;;;91.05;36.72;;;;;;;8.18;100.00;96085.41;5134445;27;20051;-86
2024/01/08 00:48:24;;;;;;;91.95;38.70;;;;;;;8.16;100.00;96085.53;5117033;27;20057;-85
2024/01/08 00:50:52;;;;;;;85.78;37.22;;;;;;;8.16;100.00;96085.53;5116856;27;20022;-86
2024/01/08 00:53:17;;;;;;;89.50;37.42;;;;;;;8.21;100.00;96098.50;5117167;27;20023;-86
2024/01/08 00:55:43;;;;;;;90.72;36.72;;;;;;;8.21;100.00;96102.97;5116901;27;20163;-86
2024/01/08 00:58:09;;;;;;;84.43;32.33;;;;;;;8.20;100.00;96096.78;5117014;27;20052;-85
2024/01/08 01:00:34;;;;;;;74.13;31.23;;;;;;;8.29;100.00;96106.78;5108413;27;20047;-85
2024/01/08 01:03:00;;;;;;;83.45;31.58;;;;;;;8.27;100.00;96106.03;5109777;27;20031;-85
2024/01/08 01:05:25;;;;;;;83.90;31.45;;;;;;;8.30;100.00;96112.97;5115472;27;20030;-84
2024/01/08 01:07:51;;;;;;;73.88;30.70;;;;;;;8.37;100.00;96111.50;5097890;27;20057;-85
2024/01/08 01:10:17;;;;;;;73.97;31.40;;;;;;;8.38;100.00;96110.56;5116694;27;20022;-85
2024/01/08 01:12:42;;;;;;;70.43;31.60;;;;;;;8.39;100.00;96106.94;5100574;27;20414;-85
2024/01/08 01:15:08;;;;;;;74.50;32.30;;;;;;;8.43;100.00;96111.06;5098980;27;20035;-85
2024/01/08 01:17:34;;;;;;;78.50;35.70;;;;;;;8.42;100.00;96112.88;5124959;27;20124;-85
2024/01/08 01:19:59;;;;;;;82.05;34.05;;;;;;;8.40;100.00;96108.63;5113556;27;20034;-85
2024/01/08 01:22:25;;;;;;;78.47;34.55;;;;;;;8.42;100.00;96112.03;5102656;27;20058;-85
2024/01/08 01:24:50;;;;;;;74.35;32.70;;;;;;;8.37;100.00;96108.84;5099131;27;20069;-84
2024/01/08 01:27:16;;;;;;;81.05;32.45;;;;;;;8.44;100.00;96107.41;5103154;28;20500;-85
2024/01/08 01:29:42;;;;;;;80.75;34.25;;;;;;;8.48;100.00;96099.09;5111570;27;20118;-85
2024/01/08 01:32:07;;;;;;;73.65;32.38;;;;;;;8.52;100.00;96103.19;5106126;27;20897;-85
2024/01/08 01:34:34;;;;;;;71.82;32.75;;;;;;;8.52;100.00;96102.38;5095949;28;20152;-85
2024/01/08 01:37:00;;;;;;;81.13;33.00;;;;;;;8.46;100.00;96100.19;5104299;27;20434;-86
2024/01/08 01:39:29;;;;;;;76.70;33.38;;;;;;;8.44;100.00;96107.41;5109579;27;20021;-86
2024/01/08 01:41:54;;;;;;;75.63;32.33;;;;;;;8.44;100.00;96099.44;5112939;28;20031;-85
2024/01/08 01:44:21;;;;;;;76.63;32.00;;;;;;;8.51;100.00;96103.31;5116553;27;20030;-86
2024/01/08 01:46:51;;;;;;;77.00;31.20;;;;;;;8.49;100.00;96107.94;5116212;27;20027;-84
2024/01/08 01:49:18;;;;;;;78.63;31.98;;;;;;;8.49;100.00;96097.28;5107064;27;20026;-84
2024/01/08 01:51:45;;;;;;;79.50;31.17;;;;;;;8.42;100.00;96098.72;5108043;28;20042;-85
2024/01/08 01:54:15;;;;;;;67.53;31.00;;;;;;;8.46;100.00;96103.66;5116220;27;20023;-85
2024/01/08 01:56:46;;;;;;;71.47;30.25;;;;;;;8.46;100.00;96110.84;5126044;28;20026;-86
2024/01/08 01:59:12;;;;;;;77.30;33.83;;;;;;;8.41;100.00;96105.00;5115092;27;20034;-86
2024/01/08 02:01:37;;;;;;;85.07;33.30;;;;;;;8.39;100.00;96112.25;5126445;27;20519;-85
2024/01/08 02:04:04;;;;;;;84.18;33.70;;;;;;;8.37;100.00;96120.34;5124518;27;20014;-85
2024/01/08 02:06:29;;;;;;;72.80;31.17;;;;;;;8.35;100.00;96121.44;5123379;27;20029;-86
2024/01/08 02:08:56;;;;;;;88.40;34.00;;;;;;;8.25;100.00;96109.75;5128185;27;20105;-85
2024/01/08 02:11:21;;;;;;;94.32;39.17;;;;;;;8.20;100.00;96120.75;5149805;27;20026;-86
2024/01/08 02:13:50;;;;;;;92.18;37.13;;;;;;;8.22;100.00;96132.13;5125277;27;20059;-86
2024/01/08 02:16:18;;;;;;;95.20;37.40;;;;;;;8.13;100.00;96123.03;5131492;27;20114;-85
2024/01/08 02:18:43;;;;;;;90.38;34.40;;;;;;;8.14;100.00;96121.22;5125022;27;20109;-85
2024/01/08 02:21:09;;;;;;;83.72;32.92;;;;;;;8.11;100.00;96132.97;5117939;27;20549;-85
2024/01/08 02:23:34;;;;;;;85.40;34.40;;;;;;;8.10;100.00;96128.59;5123666;27;20034;-84
2024/01/08 02:26:00;;;;;;;86.00;33.83;;;;;;;8.14;100.00;96132.72;5125135;27;20030;-85
2024/01/08 02:28:26;;;;;;;84.85;33.83;;;;;;;8.16;100.00;96138.78;5152455;27;20109;-86
2024/01/08 02:30:51;;;;;;;92.07;35.22;;;;;;;8.09;100.00;96131.38;5127960;27;20022;-86
2024/01/08 02:33:17;;;;;;;99.82;39.53;;;;;;;8.06;100.00;96128.91;5119088;27;20516;-85
2024/01/08 02:35:43;;;;;;;86.57;34.08;;;;;;;8.15;100.00;96139.72;5121331;27;20400;-86
2024/01/08 02:38:08;;;;;;;79.82;32.00;;;;;;;8.17;100.00;96136.97;5136906;27;20147;-85
2024/01/08 02:40:34;;;;;;;72.45;31.38;;;;;;;8.25;100.00;96141.69;5138826;27;20121;-86
2024/01/08 02:43:00;;;;;;;78.15;31.15;;;;;;;8.30;100.00;96143.13;5130457;27;20029;-86
2024/01/08 02:45:25;;;;;;;73.75;31.42;;;;;;;8.24;100.00;96145.34;5127563;27;20026;-85
2024/01/08 02:47:51;;;;;;;89.53;32.90;;;;;;;8.16;100.00;96145.91;5145408;27;20022;-85
2024/01/08 02:50:16;;;;;;;85.78;33.53;;;;;;;8.27;100.00;96153.13;5132644;27;20109;-86
2024/01/08 02:52:44;;;;;;;85.28;35.78;;;;;;;8.31;100.00;96144.78;5138840;27;20015;-86
2024/01/08 02:55:14;;;;;;;88.32;35.08;;;;;;;8.41;100.00;96155.59;5156234;27;20105;-85
2024/01/08 02:57:40;;;;;;;94.78;36.28;;;;;;;8.26;100.00;96154.06;5122697;27;20045;-85
2024/01/08 03:00:07;;;;;;;92.95;36.45;;;;;;;8.25;100.00;96158.53;5124816;27;20046;-85
2024/01/08 03:02:33;;;;;;;75.85;33.10;;;;;;;8.34;100.00;96154.38;5136101;27;20511;-85
2024/01/08 03:04:58;;;;;;;81.75;34.85;;;;;;;8.37;100.00;96162.13;5119091;27;20053;-85
2024/01/08 03:07:24;;;;;;;82.43;32.65;;;;;;;8.34;100.00;96155.22;5119117;27;20030;-85
2024/01/08 03:09:49;;;;;;;77.80;33.13;;;;;;;8.37;100.00;96160.31;5119242;27;20022;-84
2024/01/08 03:12:15;;;;;;;91.97;37.80;;;;;;;8.49;100.00;96171.88;5119067;27;20034;-84
2024/01/08 03:14:42;;;;;;;86.18;36.17;;;;;;;8.42;100.00;96166.16;5118832;27;20091;-86
2024/01/08 03:17:08;;;;;;;86.70;37.88;;;;;;;8.44;100.00;96163.38;5136149;27;20402;-86
2024/01/08 03:19:34;;;;;;;85.75;36.20;;;;;;;8.46;100.00;96170.28;5135889;27;20031;-86
2024/01/08 03:22:01;;;;;;;75.35;34.20;;;;;;;8.48;100.00;96170.16;5136015;27;20045;-85
2024/01/08 03:24:26;;;;;;;74.63;33.53;;;;;;;8.45;100.00;96176.59;5119019;27;20405;-85
2024/01/08 03:26:52;;;;;;;65.35;30.27;;;;;;;8.50;100.00;96165.56;5116275;27;20141;-85
2024/01/08 03:29:21;;;;;;;64.20;30.40;;;;;;;8.49;100.00;96164.72;5118618;27;20034;-86
2024/01/08 03:31:47;;;;;;;74.57;29.85;;;;;;;8.53;100.00;96174.19;5118359;27;20114;-85
2024/01/08 03:34:15;;;;;;;69.70;29.63;;;;;;;8.45;100.00;96178.41;5118541;27;20121;-85
2024/01/08 03:36:45;;;;;;;63.70;30.38;;;;;;;8.52;100.00;96176.97;5136356;27;20030;-86
2024/01/08 03:39:12;;;;;;;235.07;117.97;;;;;;;8.51;100.00;96181.44;5118477;27;20501;-86
2024/01/08 03:41:39;;;;;;;76.55;31.38;;;;;;;8.52;100.00;96183.13;5118156;27;20031;-85
2024/01/08 03:44:05;;;;;;;60.13;27.23;;;;;;;8.49;100.00;96188.69;5118534;27;20490;-84
2024/01/08 03:46:31;;;;;;;62.97;27.38;;;;;;;8.43;100.00;96188.34;5118213;27;20034;-83
2024/01/08 03:48:57;;;;;;;62.85;27.63;;;;;;;8.43;100.00;96189.16;5117632;27;20054;-84
2024/01/08 03:51:23;;;;;;;56.35;26.33;;;;;;;8.42;100.00;96181.28;5118442;27;20114;-83
2024/01/08 03:53:48;;;;;;;56.35;24.98;;;;;;;8.34;100.00;96178.34;5117981;27;20019;-86
2024/01/08 03:56:14;;;;;;;56.15;24.60;;;;;;;8.38;100.00;96195.81;5118139;27;20061;-85
2024/01/08 03:58:40;;;;;;;49.70;23.83;;;;;;;8.31;100.00;96194.53;5137491;27;20062;-85
2024/01/08 04:01:05;;;;;;;51.72;22.83;;;;;;;8.34;100.00;96205.84;5119972;27;20057;-85
2024/01/08 04:03:31;;;;;;;48.13;22.30;;;;;;;8.30;100.00;96200.88;5126008;27;20062;-86
2024/01/08 04:05:57;;;;;;;48.00;22.15;;;;;;;8.39;100.00;96208.16;5126667;27;20023;-86
2024/01/08 04:08:31;;;;;;;49.53;24.20;;;;;;;8.39;100.00;96218.81;5129880;27;20023;-86
2024/01/08 04:10:57;;;;;;;50.45;24.08;;;;;;;8.46;100.00;96222.75;5137960;27;20107;-85
2024/01/08 04:13:22;;;;;;;43.67;21.20;;;;;;;8.46;100.00;96226.22;5135309;27;20064;-84
2024/01/08 04:15:48;;;;;;;48.47;22.35;;;;;;;8.47;100.00;96222.59;5134550;27;20025;-86
2024/01/08 04:18:14;;;;;;;42.05;21.15;;;;;;;8.51;100.00;96231.22;5124581;27;20030;-86
2024/01/08 04:20:40;;;;;;;42.08;20.58;;;;;;;8.43;100.00;96233.63;5138929;27;20034;-85
2024/01/08 04:23:07;;;;;;;42.47;19.45;;;;;;;8.38;100.00;96219.78;5154990;27;20404;-84
2024/01/08 04:25:33;;;;;;;48.92;24.10;;;;;;;8.49;100.00;96235.81;5131000;27;20030;-83
2024/01/08 04:27:59;;;;;;;51.83;23.25;;;;;;;8.47;100.00;96243.06;5165470;27;20028;-85
2024/01/08 04:30:24;;;;;;;43.08;19.83;;;;;;;8.47;100.00;96248.41;5134856;27;20495;-84
2024/01/08 04:32:50;;;;;;;41.15;18.20;;;;;;;8.54;100.00;96252.31;5119973;27;20023;-85
2024/01/08 04:35:16;;;;;;;42.80;19.50;;;;;;;8.56;100.00;96253.03;5133679;27;20030;-78
2024/01/08 04:37:42;;;;;;;39.13;19.17;;;;;;;8.50;100.00;96250.84;5155118;27;20026;-73
2024/01/08 04:40:08;;;;;;;90.28;49.60;;;;;;;8.54;100.00;96254.97;5131293;27;20027;-74
2024/01/08 04:42:34;;;;;;;57.55;29.50;;;;;;;8.63;100.00;96257.81;5149961;27;20042;-83
2024/01/08 04:45:00;;;;;;;41.35;20.55;;;;;;;8.51;100.00;96250.72;5120739;27;20451;-84
2024/01/08 04:47:25;;;;;;;38.08;19.52;;;;;;;8.46;100.00;96257.38;5122601;27;20042;-83
2024/01/08 04:49:51;;;;;;;48.45;22.15;;;;;;;8.51;100.00;96265.88;5123367;27;20026;-84
2024/01/08 04:52:17;;;;;;;40.30;18.40;;;;;;;8.45;100.00;96269.84;5133169;27;20477;-84
2024/01/08 04:54:42;;;;;;;34.08;17.27;;;;;;;8.50;100.00;96278.34;5116702;27;20026;-84
2024/01/08 04:57:09;;;;;;;28.65;15.52;;;;;;;8.47;100.00;96281.22;5125585;27;20112;-84
2024/01/08 04:59:41;;;;;;;30.67;15.68;;;;;;;8.45;100.00;96284.97;5127895;27;20095;-86
2024/01/08 05:02:08;;;;;;;30.02;15.88;;;;;;;8.48;100.00;96295.41;5127755;27;20441;-84
2024/01/08 05:04:34;;;;;;;32.10;16.02;;;;;;;8.44;100.00;96291.25;5137688;27;20101;-85
2024/01/08 05:07:00;;;;;;;32.55;16.45;;;;;;;8.38;100.00;96297.03;5146199;27;20022;-84
2024/01/08 05:09:26;;;;;;;31.23;17.45;;;;;;;8.31;100.00;96293.97;5123645;27;20019;-83
2024/01/08 05:11:51;;;;;;;29.17;14.85;;;;;;;8.38;100.00;96303.22;5131089;27;20029;-84
2024/01/08 05:14:20;;;;;;;26.48;13.68;;;;;;;8.37;100.00;96296.19;5133582;27;20034;-85
2024/01/08 05:16:46;;;;;;;27.40;14.48;;;;;;;8.42;100.00;96311.84;5119594;27;20413;-83
2024/01/08 05:19:12;;;;;;;24.30;13.70;;;;;;;8.48;100.00;96319.38;5130869;27;20041;-85
2024/01/08 05:21:37;;;;;;;26.95;13.52;;;;;;;8.49;100.00;96324.59;5140699;27;20022;-84
2024/01/08 05:24:03;;;;;;;33.58;15.20;;;;;;;8.56;100.00;96335.66;5129627;27;20022;-73
2024/01/08 05:26:29;;;;;;;28.35;15.48;;;;;;;8.55;100.00;96331.31;5135551;27;20099;-81
2024/01/08 05:28:54;;;;;;;31.20;15.32;;;;;;;8.56;100.00;96339.16;5134167;27;20519;-78
2024/01/08 05:31:22;;;;;;;25.67;13.00;;;;;;;8.55;100.00;96347.28;5129297;27;20021;-79
2024/01/08 05:33:49;;;;;;;19.13;10.05;;;;;;;8.50;100.00;96344.94;5144517;27;20026;-77
2024/01/08 05:36:14;;;;;;;25.08;11.95;;;;;;;8.39;100.00;96339.56;5143250;27;20241;-75
2024/01/08 05:38:40;;;;;;;15.68;9.23;;;;;;;8.44;100.00;96344.53;5133851;27;20103;-86
2024/01/08 05:41:05;;;;;;;15.57;8.05;;;;;;;8.22;100.00;96342.53;5132233;27;20027;-84
2024/01/08 05:43:37;;;;;;;8.98;5.93;;;;;;;8.09;100.00;96350.56;5124722;27;20026;-81
2024/01/08 05:46:04;;;;;;;8.70;5.45;;;;;;;7.98;100.00;96349.63;5123374;27;20026;-84
2024/01/08 05:48:36;;;;;;;8.38;5.90;;;;;;;7.97;100.00;96370.06;5127261;27;20061;-84
2024/01/08 05:51:04;;;;;;;13.52;7.60;;;;;;;7.93;100.00;96371.25;5129885;27;20378;-85
2024/01/08 05:53:29;;;;;;;42.78;24.08;;;;;;;7.91;100.00;96381.16;5144684;27;20065;-84
2024/01/08 05:55:55;;;;;;;8.25;4.85;;;;;;;7.81;100.00;96371.28;5143042;27;20118;-83
2024/01/08 05:58:21;;;;;;;8.52;5.57;;;;;;;7.79;100.00;96392.66;5122935;27;20099;-87
2024/01/08 06:00:46;;;;;;;8.82;5.68;;;;;;;7.55;100.00;96389.88;5116036;27;20074;-85
2024/01/08 06:03:12;;;;;;;19.45;13.02;;;;;;;7.55;100.00;96397.00;5114592;27;20042;-86
2024/01/08 06:05:37;;;;;;;14.57;8.43;;;;;;;7.52;100.00;96398.06;5114747;27;20084;-86
2024/01/08 06:08:03;;;;;;;14.07;7.72;;;;;;;7.44;100.00;96404.88;5134027;27;20072;-88
2024/01/08 06:10:29;;;;;;;12.77;6.80;;;;;;;7.49;100.00;96424.03;5117422;27;20023;-88
2024/01/08 06:12:55;;;;;;;25.25;9.55;;;;;;;7.33;100.00;96426.00;5135961;27;20027;-85
2024/01/08 06:15:20;;;;;;;35.85;13.15;;;;;;;7.23;100.00;96431.09;5116862;27;20031;-88
2024/01/08 06:17:46;;;;;;;19.50;7.43;;;;;;;6.97;100.00;96432.84;5120245;27;20034;-86
2024/01/08 06:20:12;;;;;;;13.02;4.95;;;;;;;6.82;100.00;96419.69;5138558;27;20042;-87
2024/01/08 06:22:38;;;;;;;8.55;4.75;;;;;;;6.77;100.00;96419.13;5116967;27;20030;-86
2024/01/08 06:25:04;;;;;;;12.68;4.57;;;;;;;6.70;100.00;96434.63;5116694;27;20035;-85
2024/01/08 06:27:30;;;;;;;9.20;4.00;;;;;;;6.66;100.00;96443.75;5133729;27;20035;-85
2024/01/08 06:29:55;;;;;;;9.20;3.28;;;;;;;6.65;100.00;96447.34;5116786;27;20153;-85
2024/01/08 06:32:21;;;;;;;4.57;2.55;;;;;;;6.64;100.00;96464.25;5118528;27;20401;-86
2024/01/08 06:34:46;;;;;;;3.60;2.50;;;;;;;6.53;100.00;96464.06;5119837;27;20041;-87
2024/01/08 06:37:12;;;;;;;4.35;3.13;;;;;;;6.54;100.00;96474.59;5116953;27;20092;-87
2024/01/08 06:39:38;;;;;;;7.32;3.67;;;;;;;6.53;100.00;96486.16;5116952;27;20497;-86
2024/01/08 06:42:04;;;;;;;83.60;44.10;;;;;;;6.55;100.00;96489.56;5135159;27;20068;-84
2024/01/08 06:44:30;;;;;;;13.00;6.88;;;;;;;6.61;100.00;96492.81;5119738;27;20027;-86
2024/01/08 06:46:55;;;;;;;12.98;6.75;;;;;;;6.63;100.00;96505.03;5116420;27;20034;-86
2024/01/08 06:49:21;;;;;;;10.25;5.38;;;;;;;6.70;100.00;96511.69;5118283;27;20509;-87
2024/01/08 06:51:47;;;;;;;6.28;3.90;;;;;;;6.65;100.00;96516.41;5116324;27;20030;-86
2024/01/08 06:54:13;;;;;;;5.50;3.20;;;;;;;6.39;100.00;96510.09;5116322;27;20057;-87
2024/01/08 06:56:39;;;;;;;5.32;3.28;;;;;;;6.47;100.00;96528.19;5119814;27;20046;-86
2024/01/08 06:59:05;;;;;;;7.63;3.83;;;;;;;6.41;100.00;96526.78;5121870;27;20046;-87
2024/01/08 07:01:31;;;;;;;7.82;3.65;;;;;;;6.40;100.00;96538.34;5120792;27;20379;-86
2024/01/08 07:03:57;;;;;;;5.60;3.65;;;;;;;6.33;100.00;96545.00;5134399;27;20045;-86
2024/01/08 07:06:26;;;;;;;5.47;3.30;;;;;;;6.23;100.00;96540.31;5125203;27;20030;-86
2024/01/08 07:08:52;;;;;;;3.75;2.03;;;;;;;6.13;100.00;96544.47;5136717;27;20099;-87
2024/01/08 07:11:25;;;;;;;8.45;2.67;;;;;;;6.14;100.00;96559.47;5128919;27;20430;-87
2024/01/08 07:13:51;;;;;;;5.68;3.05;;;;;;;6.02;100.00;96544.28;5118696;27;20057;-87
2024/01/08 07:16:20;;;;;;;2.03;1.50;;;;;;;6.08;100.00;96570.47;5125916;27;20054;-87
2024/01/08 07:18:46;;;;;;;1.98;1.70;;;;;;;5.99;100.00;96575.38;5114955;27;20060;-87
2024/01/08 07:21:16;;;;;;;1.67;1.33;;;;;;;5.84;100.00;96570.94;5126472;27;20023;-87
2024/01/08 07:23:44;;;;;;;1.50;1.40;;;;;;;5.84;100.00;96586.88;5135461;27;20042;-87
2024/01/08 07:26:33;;;;;;;2.92;1.50;;;;;;;5.84;100.00;96589.53;5142434;27;20387;-85
2024/01/08 07:28:59;;;;;;;2.45;1.75;;;;;;;5.76;100.00;96588.22;5146434;27;20125;-86
2024/01/08 07:31:26;;;;;;;5.22;2.72;;;;;;;5.72;100.00;96600.81;5154539;27;20424;-85
2024/01/08 07:34:02;;;;;;;4.40;2.38;;;;;;;5.63;100.00;96609.31;5131182;27;20029;-87
2024/01/08 07:36:28;;;;;;;3.90;2.50;;;;;;;5.57;100.00;96609.66;5128721;27;20135;-86
2024/01/08 07:38:54;;;;;;;7.03;4.03;;;;;;;5.65;100.00;96630.47;5123965;27;20124;-87
2024/01/08 07:41:43;;;;;;;6.18;3.30;;;;;;;5.53;100.00;96629.38;5129974;27;20088;-85
2024/01/08 07:44:08;;;;;;;7.80;3.05;;;;;;;5.27;100.00;96614.91;5143811;27;20536;-86
2024/01/08 07:46:34;;;;;;;2.92;2.30;;;;;;;5.37;100.00;96662.97;5132784;27;20095;-85
2024/01/08 07:49:00;;;;;;;5.63;3.20;;;;;;;5.31;100.00;96661.53;5128680;27;20117;-85
2024/01/08 07:51:26;;;;;;;4.63;2.72;;;;;;;5.24;100.00;96667.25;5129791;27;20485;-85
2024/01/08 07:53:52;;;;;;;4.85;2.42;;;;;;;5.18;100.00;96680.84;5118059;27;20031;-85
2024/01/08 07:56:25;;;;;;;3.50;2.40;;;;;;;5.14;100.00;96668.69;5125917;27;20031;-86
2024/01/08 07:58:51;;;;;;;3.60;2.22;;;;;;;5.17;100.00;96676.50;5120641;27;20100;-85
2024/01/08 08:01:16;;;;;;;;;;;;;;;5.08;100.00;96687.56;5127628;27;20035;-86
2024/01/08 08:03:42;;;;;;;2.85;2.05;;;;;;;5.00;100.00;96681.84;5133443;27;20322;-86
2024/01/08 08:06:07;;;;;;;14.63;3.05;;;;;;;5.03;100.00;96694.91;5135780;27;20031;-85
2024/01/08 08:08:36;;;;;;;5.07;2.63;;;;;;;4.90;100.00;96692.91;5134674;27;20031;-84
2024/01/08 08:11:03;;;;;;;11.63;5.57;;;;;;;4.91;100.00;96696.44;5146772;27;20027;-85
2024/01/08 08:13:30;;;;;;;26.63;9.93;;;;;;;4.99;100.00;96706.59;5134369;27;20048;-85
2024/01/08 08:15:56;;;;;;;19.75;7.45;;;;;;;4.98;100.00;96704.91;5131902;27;20568;-85
2024/01/08 08:18:22;;;;;;;7.85;4.05;;;;;;;4.99;100.00;96707.47;5144533;27;20031;-84
2024/01/08 08:20:48;;;;;;;3.45;2.63;;;;;;;4.98;100.00;96718.16;5123496;27;20027;-85
2024/01/08 08:23:14;;;;;;;16.35;8.43;;;;;;;4.94;100.00;96714.81;5117797;27;20060;-85
2024/01/08 08:25:40;;;;;;;4.97;2.65;;;;;;;4.93;100.00;96729.84;5126518;27;20029;-84
2024/01/08 08:28:06;;;;;;;17.88;8.27;;;;;;;4.89;100.00;96730.94;5122815;27;20113;-85
2024/01/08 08:30:31;;;;;;;4.95;2.83;;;;;;;4.89;100.00;96738.06;5130784;27;20065;-85
2024/01/08 08:33:27;;;;;;;4.40;3.00;;;;;;;4.89;100.00;96735.41;5118824;27;20050;-85
2024/01/08 08:35:53;;;;;;;31.90;13.73;;;;;;;4.86;100.00;96744.34;5153509;27;20401;-85
2024/01/08 08:38:19;;;;;;;5.20;2.65;;;;;;;4.84;100.00;96751.53;5128762;27;20027;-85
2024/01/08 08:40:44;;;;;;;8.80;3.88;;;;;;;4.86;100.00;96754.13;5134049;27;20095;-85
2024/01/08 08:43:10;;;;;;;5.03;3.13;;;;;;;4.78;100.00;96762.44;5118747;27;20034;-85
2024/01/08 08:45:35;;;;;;;3.90;2.40;;;;;;;4.66;100.00;96757.78;5138898;27;20027;-86
2024/01/08 08:48:11;;;;;;;12.73;3.63;;;;;;;4.75;100.00;96773.19;5117884;27;20026;-85
2024/01/08 08:50:38;;;;;;;3.95;2.33;;;;;;;4.59;100.00;96768.75;5117673;27;20026;-85
2024/01/08 08:53:03;;;;;;;6.38;3.00;;;;;;;4.60;100.00;96770.47;5128716;27;20019;-86
2024/01/08 08:55:30;;;;;;;7.15;3.10;;;;;;;4.46;100.00;96771.16;5119613;27;20117;-86
2024/01/08 08:57:55;;;;;;;5.82;3.75;;;;;;;4.55;100.00;96778.66;5119089;27;20023;-86
2024/01/08 09:00:24;;;;;;;5.47;3.28;;;;;;;4.61;100.00;96786.31;5126395;27;20047;-85
2024/01/08 09:02:52;;;;;;;5.82;2.97;;;;;;;4.46;100.00;96786.22;5152271;27;20030;-85
2024/01/08 09:05:19;;;;;;;8.43;4.00;;;;;;;4.57;100.00;96795.31;5135183;27;20051;-86
2024/01/08 09:07:45;;;;;;;9.15;3.58;;;;;;;4.57;100.00;96799.75;5126588;27;20037;-85
2024/01/08 09:10:10;;;;;;;4.47;2.78;;;;;;;4.51;100.00;96798.28;5129118;27;20033;-84
2024/01/08 09:12:36;;;;;;;7.63;2.85;;;;;;;4.51;100.00;96800.94;5125900;27;20061;-85
2024/01/08 09:15:01;;;;;;;3.85;2.78;;;;;;;4.57;100.00;96802.41;5124826;27;20460;-85
2024/01/08 09:17:29;;;;;;;8.75;4.05;;;;;;;4.64;100.00;96806.47;5118071;27;20517;-85
2024/01/08 09:19:55;;;;;;;5.05;3.20;;;;;;;4.63;100.00;96810.03;5125704;27;20499;-85
2024/01/08 09:22:20;;;;;;;6.32;3.80;;;;;;;4.59;100.00;96806.69;5129974;27;20030;-85
2024/01/08 09:24:46;;;;;;;7.70;4.50;;;;;;;4.65;100.00;96809.03;5118099;27;20071;-85
2024/01/08 09:27:11;;;;;;;6.60;3.65;;;;;;;4.70;100.00;96814.97;5128704;27;20038;-86
2024/01/08 09:29:37;;;;;;;9.02;4.63;;;;;;;4.66;100.00;96804.59;5119336;27;20438;-85
2024/01/08 09:32:03;;;;;;;12.00;6.82;;;;;;;4.77;100.00;96813.69;5118823;27;20022;-85
2024/01/08 09:34:28;;;;;;;4.90;3.20;;;;;;;4.76;100.00;96819.94;5129408;27;20027;-85
2024/01/08 09:36:55;;;;;;;4.97;3.30;;;;;;;4.75;100.00;96822.66;5125758;27;20023;-86
2024/01/08 09:39:21;;;;;;;13.77;3.42;;;;;;;4.63;100.00;96818.00;5134682;27;20462;-84
2024/01/08 09:41:48;;;;;;;10.75;6.95;;;;;;;4.63;100.00;96821.50;5118516;27;20076;-84
2024/01/08 09:44:19;;;;;;;23.38;10.55;;;;;;;4.57;100.00;96821.81;5128571;27;20073;-85
2024/01/08 09:46:47;;;;;;;21.67;11.60;;;;;;;4.51;100.00;96826.53;5120493;27;20130;-85
2024/01/08 09:49:14;;;;;;;14.35;7.93;;;;;;;4.40;100.00;96824.41;5131801;27;20031;-85
2024/01/08 09:51:41;;;;;;;13.93;6.43;;;;;;;4.39;100.00;96838.59;5146944;27;20040;-85
2024/01/08 09:54:06;;;;;;;15.75;8.38;;;;;;;4.37;100.00;96813.97;5128478;27;20019;-86
2024/01/08 09:56:32;;;;;;;10.77;5.95;;;;;;;4.30;100.00;96815.22;5138553;27;20042;-86
2024/01/08 09:58:58;;;;;;;8.50;4.97;;;;;;;4.43;100.00;96818.97;5120724;27;20483;-85
2024/01/08 10:01:54;;;;;;;12.60;6.00;;;;;;;4.40;100.00;96842.13;5135164;27;20035;-85
2024/01/08 10:04:20;;;;;;;17.25;7.90;;;;;;;4.34;100.00;96836.16;5130006;27;20362;-85
2024/01/08 10:06:47;;;;;;;24.55;7.30;;;;;;;4.43;100.00;96826.09;5143509;27;20080;-84
2024/01/08 10:09:12;;;;;;;18.90;7.63;;;;;;;4.48;100.00;96826.69;5138726;27;20057;-85
2024/01/08 10:11:39;;;;;;;16.65;5.47;;;;;;;4.41;100.00;96831.44;5126831;27;20046;-84
2024/01/08 10:14:08;;;;;;;7.22;3.63;;;;;;;4.37;100.00;96819.28;5136048;27;20027;-83
2024/01/08 10:16:34;;;;;;;7.82;4.63;;;;;;;4.47;100.00;96823.19;5130652;27;20502;-84
2024/01/08 10:18:59;;;;;;;7.00;4.10;;;;;;;4.50;100.00;96815.09;5134548;27;20069;-84
2024/01/08 10:21:26;;;;;;;5.30;3.22;;;;;;;4.41;100.00;96830.56;5146687;27;20054;-85
2024/01/08 10:24:07;;;;;;;7.18;3.42;;;;;;;4.45;100.00;96827.72;5120981;27;20023;-86
2024/01/08 10:26:33;;;;;;;22.95;10.32;;;;;;;4.38;100.00;96826.28;5146591;27;20514;-85
2024/01/08 10:28:58;;;;;;;16.65;8.88;;;;;;;4.28;100.00;96832.97;5130008;27;20054;-84
2024/01/08 10:31:24;;;;;;;14.20;7.60;;;;;;;4.39;100.00;96838.59;5120454;27;20417;-85
2024/01/08 10:33:50;;;;;;;14.82;7.53;;;;;;;4.35;100.00;96831.72;5141701;27;20022;-85
2024/01/08 10:36:17;;;;;;;9.40;5.50;;;;;;;4.36;100.00;96815.78;5137756;27;20030;-84
2024/01/08 10:38:43;;;;;;;9.70;5.78;;;;;;;4.39;100.00;96822.72;5132606;27;20018;-86
2024/01/08 10:41:10;;;;;;;13.38;7.00;;;;;;;4.42;100.00;96816.41;5123135;27;20038;-84
2024/01/08 10:43:35;;;;;;;15.85;9.60;;;;;;;4.45;100.00;96830.34;5150867;27;20114;-84
2024/01/08 10:46:04;;;;;;;17.33;8.48;;;;;;;4.46;100.00;96802.94;5133281;27;20054;-85
2024/01/08 10:48:40;;;;;;;17.67;8.73;;;;;;;4.66;100.00;96831.06;5131781;27;20061;-84
2024/01/08 10:51:08;;;;;;;17.77;9.95;;;;;;;4.62;100.00;96827.72;5131788;27;20402;-85
2024/01/08 10:53:47;;;;;;;9.38;5.82;;;;;;;4.67;100.00;96838.09;5137864;27;20023;-83
2024/01/08 10:56:15;;;;;;;9.20;5.43;;;;;;;4.35;100.00;96829.09;5133992;27;20111;-85
2024/01/08 10:58:51;;;;;;;8.77;5.68;;;;;;;4.37;100.00;96836.00;5130225;27;20417;-84
2024/01/08 11:01:17;;;;;;;10.90;6.75;;;;;;;4.36;100.00;96844.06;5136193;27;20058;-85
2024/01/08 11:03:44;;;;;;;12.55;7.18;;;;;;;4.43;100.00;96852.56;5151498;27;20054;-85
2024/01/08 11:06:11;;;;;;;11.40;6.68;;;;;;;4.35;100.00;96848.47;5136347;27;20049;-83
2024/01/08 11:08:37;;;;;;;12.32;6.97;;;;;;;4.40;100.00;96856.19;5124609;27;20054;-85
2024/01/08 11:11:10;;;;;;;10.50;6.70;;;;;;;4.48;100.00;96859.34;5121112;27;20077;-85
2024/01/08 11:13:38;;;;;;;11.75;7.30;;;;;;;4.47;100.00;96868.19;5136358;27;20023;-83
2024/01/08 11:16:06;;;;;;;14.82;8.20;;;;;;;4.43;100.00;96856.03;5134719;27;20026;-85
2024/01/08 11:18:32;;;;;;;16.35;9.13;;;;;;;4.54;100.00;96872.28;5141052;27;20034;-86
2024/01/08 11:20:59;;;;;;;16.02;8.38;;;;;;;4.59;100.00;96870.25;5135364;27;20109;-85
2024/01/08 11:23:40;;;;;;;12.55;6.63;;;;;;;4.54;100.00;96866.97;5133991;27;20401;-84